sensor_id;sensor_type;location;lat;lon;timestamp;pressure;altitude;pressure_sealevel;temperature;humidity
6030;BME280;3043;42.682;23.376;2023-05-08T00:00:39;95103.25;;;14.52;100.00
6030;BME280;3043;42.682;23.376;2023-05-08T00:03:05;95109.53;;;14.47;100.00
6030;BME280;3043;42.682;23.376;2023-05-08T00:05:30;95108.81;;;14.43;100.00
6030;BME280;3043;42.682;23.376;2023-05-08T00:07:55;95105.41;;;14.41;100.00
6030;BME280;3043;42.682;23.376;2023-05-08T00:10:26;95104.03;;;14.31;100.00
6030;BME280;3043;42.682;23.376;2023-05-08T00:12:52;95113.56;;;14.32;100.00
6030;BME280;3043;42.682;23.376;2023-05-08T00:15:17;95104.03;;;14.31;100.00
6030;BME280;3043;42.682;23.376;2023-05-08T00:17:43;95109.00;;;14.37;100.00
6030;BME280;3043;42.682;23.376;2023-05-08T00:20:08;95103.91;;;14.34;100.00
6030;BME280;3043;42.682;23.376;2023-05-08T00:22:34;95112.88;;;14.27;100.00
6030;BME280;3043;42.682;23.376;2023-05-08T00:24:59;95100.75;;;14.26;100.00
6030;BME280;3043;42.682;23.376;2023-05-08T00:27:25;95109.34;;;14.28;100.00
6030;BME280;3043;42.682;23.376;2023-05-08T00:29:50;95112.38;;;14.16;100.00
6030;BME280;3043;42.682;23.376;2023-05-08T00:32:16;95107.97;;;14.18;100.00
6030;BME280;3043;42.682;23.376;2023-05-08T00:34:41;95107.03;;;14.19;100.00
6030;BME280;3043;42.682;23.376;2023-05-08T00:37:07;95109.88;;;14.13;100.00
6030;BME280;3043;42.682;23.376;2023-05-08T00:39:32;95116.81;;;14.14;100.00
6030;BME280;3043;42.682;23.376;2023-05-08T00:41:57;95120.06;;;14.19;100.00
6030;BME280;3043;42.682;23.376;2023-05-08T00:44:23;95115.72;;;14.19;100.00
6030;BME280;3043;42.682;23.376;2023-05-08T00:46:49;95116.69;;;14.17;100.00
6030;BME280;3043;42.682;23.376;2023-05-08T00:49:15;95113.41;;;14.12;100.00
6030;BME280;3043;42.682;23.376;2023-05-08T00:51:43;95114.41;;;14.08;100.00
6030;BME280;3043;42.682;23.376;2023-05-08T00:54:09;95131.03;;;14.04;100.00
6030;BME280;3043;42.682;23.376;2023-05-08T00:56:36;95124.25;;;14.00;100.00
6030;BME280;3043;42.682;23.376;2023-05-08T00:59:03;95120.06;;;13.96;100.00
6030;BME280;3043;42.682;23.376;2023-05-08T01:01:33;95121.75;;;13.97;100.00
6030;BME280;3043;42.682;23.376;2023-05-08T01:04:04;95124.47;;;13.94;100.00
6030;BME280;3043;42.682;23.376;2023-05-08T01:06:30;95127.41;;;13.85;100.00
6030;BME280;3043;42.682;23.376;2023-05-08T01:08:56;95128.28;;;13.84;100.00
6030;BME280;3043;42.682;23.376;2023-05-08T01:11:46;95123.19;;;13.81;100.00
6030;BME280;3043;42.682;23.376;2023-05-08T01:14:37;95124.03;;;13.81;100.00
6030;BME280;3043;42.682;23.376;2023-05-08T01:17:29;95129.25;;;13.81;100.00
6030;BME280;3043;42.682;23.376;2023-05-08T01:20:38;95124.25;;;13.75;100.00
6030;BME280;3043;42.682;23.376;2023-05-08T01:34:05;95121.81;;;13.71;100.00
6030;BME280;3043;42.682;23.376;2023-05-08T01:39:17;95120.84;;;13.73;100.00
6030;BME280;3043;42.682;23.376;2023-05-08T01:41:57;95121.69;;;13.74;100.00
6030;BME280;3043;42.682;23.376;2023-05-08T01:44:28;95122.66;;;13.71;100.00
6030;BME280;3043;42.682;23.376;2023-05-08T01:46:57;95115.69;;;13.72;100.00
6030;BME280;3043;42.682;23.376;2023-05-08T01:49:29;95113.94;;;13.72;100.00
6030;BME280;3043;42.682;23.376;2023-05-08T01:52:02;95113.94;;;13.72;100.00
6030;BME280;3043;42.682;23.376;2023-05-08T01:54:37;95118.41;;;13.69;100.00
6030;BME280;3043;42.682;23.376;2023-05-08T01:57:05;95113.78;;;13.77;100.00
6030;BME280;3043;42.682;23.376;2023-05-08T01:59:34;95106.19;;;13.71;100.00
6030;BME280;3043;42.682;23.376;2023-05-08T02:02:01;95116.94;;;13.62;100.00
6030;BME280;3043;42.682;23.376;2023-05-08T02:04:28;95108.72;;;13.48;100.00
6030;BME280;3043;42.682;23.376;2023-05-08T02:06:55;95106.41;;;13.40;100.00
6030;BME280;3043;42.682;23.376;2023-05-08T02:09:22;95113.53;;;13.34;100.00
6030;BME280;3043;42.682;23.376;2023-05-08T02:11:49;95122.50;;;13.25;100.00
6030;BME280;3043;42.682;23.376;2023-05-08T02:14:18;95120.75;;;13.26;100.00
6030;BME280;3043;42.682;23.376;2023-05-08T02:16:45;95114.56;;;13.30;100.00
6030;BME280;3043;42.682;23.376;2023-05-08T02:19:14;95118.25;;;13.23;100.00
6030;BME280;3043;42.682;23.376;2023-05-08T02:21:41;95113.25;;;13.17;100.00
6030;BME280;3043;42.682;23.376;2023-05-08T02:24:08;95120.44;;;13.09;100.00
6030;BME280;3043;42.682;23.376;2023-05-08T02:26:35;95117.13;;;13.04;100.00
6030;BME280;3043;42.682;23.376;2023-05-08T02:29:02;95121.63;;;12.99;100.00
6030;BME280;3043;42.682;23.376;2023-05-08T02:31:28;95117.41;;;12.95;100.00
6030;BME280;3043;42.682;23.376;2023-05-08T02:33:55;95111.47;;;12.91;100.00
6030;BME280;3043;42.682;23.376;2023-05-08T02:36:22;95117.50;;;12.92;100.00
6030;BME280;3043;42.682;23.376;2023-05-08T02:38:50;95117.59;;;12.89;100.00
6030;BME280;3043;42.682;23.376;2023-05-08T02:41:19;95126.19;;;12.63;100.00
6030;BME280;3043;42.682;23.376;2023-05-08T02:43:46;95127.06;;;12.64;100.00
6030;BME280;3043;42.682;23.376;2023-05-08T02:46:24;95118.34;;;12.65;100.00
6030;BME280;3043;42.682;23.376;2023-05-08T02:48:56;95122.50;;;12.42;100.00
6030;BME280;3043;42.682;23.376;2023-05-08T02:51:42;95125.00;;;12.45;100.00
6030;BME280;3043;42.682;23.376;2023-05-08T02:54:22;95122.59;;;12.39;100.00
6030;BME280;3043;42.682;23.376;2023-05-08T02:56:55;95128.63;;;12.40;100.00
6030;BME280;3043;42.682;23.376;2023-05-08T02:59:29;95126.84;;;12.42;100.00
6030;BME280;3043;42.682;23.376;2023-05-08T03:02:05;95126.75;;;12.45;100.00
6030;BME280;3043;42.682;23.376;2023-05-08T03:04:40;95134.31;;;12.52;100.00
6030;BME280;3043;42.682;23.376;2023-05-08T03:07:10;95124.03;;;12.77;100.00
6030;BME280;3043;42.682;23.376;2023-05-08T03:09:46;95125.78;;;12.77;100.00
6030;BME280;3043;42.682;23.376;2023-05-08T03:12:21;95128.84;;;12.62;100.00
6030;BME280;3043;42.682;23.376;2023-05-08T03:14:55;95127.97;;;12.61;100.00
6030;BME280;3043;42.682;23.376;2023-05-08T03:17:25;95131.97;;;12.73;100.00
6030;BME280;3043;42.682;23.376;2023-05-08T03:19:55;95129.19;;;12.79;100.00
6030;BME280;3043;42.682;23.376;2023-05-08T03:22:22;95138.66;;;12.80;100.00
6030;BME280;3043;42.682;23.376;2023-05-08T03:24:50;95136.97;;;12.79;100.00
6030;BME280;3043;42.682;23.376;2023-05-08T03:27:18;95135.00;;;12.87;100.00
6030;BME280;3043;42.682;23.376;2023-05-08T03:29:45;95133.00;;;12.95;100.00
6030;BME280;3043;42.682;23.376;2023-05-08T03:32:11;95140.50;;;13.31;100.00
6030;BME280;3043;42.682;23.376;2023-05-08T03:34:38;95144.31;;;13.72;100.00
6030;BME280;3043;42.682;23.376;2023-05-08T03:37:04;95138.22;;;13.73;100.00
6030;BME280;3043;42.682;23.376;2023-05-08T03:39:30;95142.19;;;13.83;100.00
6030;BME280;3043;42.682;23.376;2023-05-08T03:41:55;95135.69;;;14.19;100.00
6030;BME280;3043;42.682;23.376;2023-05-08T03:44:22;95139.59;;;14.55;100.00
6030;BME280;3043;42.682;23.376;2023-05-08T03:46:49;95141.22;;;15.02;100.00
6030;BME280;3043;42.682;23.376;2023-05-08T03:49:16;95141.22;;;15.45;100.00
6030;BME280;3043;42.682;23.376;2023-05-08T03:51:42;95147.13;;;16.11;100.00
6030;BME280;3043;42.682;23.376;2023-05-08T03:54:08;95151.56;;;16.67;100.00
6030;BME280;3043;42.682;23.376;2023-05-08T03:56:33;95148.34;;;17.35;100.00
6030;BME280;3043;42.682;23.376;2023-05-08T04:03:58;95159.25;;;17.97;100.00
6030;BME280;3043;42.682;23.376;2023-05-08T04:06:32;95159.34;;;18.28;100.00
6030;BME280;3043;42.682;23.376;2023-05-08T04:11:59;95163.31;;;19.02;100.00
6030;BME280;3043;42.682;23.376;2023-05-08T04:14:29;95166.94;;;19.46;100.00
6030;BME280;3043;42.682;23.376;2023-05-08T04:17:00;95169.78;;;19.27;100.00
6030;BME280;3043;42.682;23.376;2023-05-08T04:19:32;95175.25;;;19.38;100.00
6030;BME280;3043;42.682;23.376;2023-05-08T04:22:06;95172.53;;;20.01;100.00
6030;BME280;3043;42.682;23.376;2023-05-08T04:24:34;95179.63;;;19.85;99.48
6030;BME280;3043;42.682;23.376;2023-05-08T04:27:02;95180.28;;;19.27;100.00
6030;BME280;3043;42.682;23.376;2023-05-08T04:29:28;95178.38;;;19.29;100.00
6030;BME280;3043;42.682;23.376;2023-05-08T04:31:55;95172.16;;;18.99;100.00
6030;BME280;3043;42.682;23.376;2023-05-08T04:34:22;95178.50;;;18.95;100.00
6030;BME280;3043;42.682;23.376;2023-05-08T04:36:47;95173.75;;;18.86;100.00
6030;BME280;3043;42.682;23.376;2023-05-08T04:39:13;95168.53;;;18.86;100.00
6030;BME280;3043;42.682;23.376;2023-05-08T04:41:38;95168.56;;;18.69;100.00
6030;BME280;3043;42.682;23.376;2023-05-08T04:44:04;95165.56;;;18.60;100.00
6030;BME280;3043;42.682;23.376;2023-05-08T04:46:30;95159.84;;;18.19;100.00
6030;BME280;3043;42.682;23.376;2023-05-08T04:48:55;95166.75;;;18.20;100.00
6030;BME280;3043;42.682;23.376;2023-05-08T04:51:21;95165.22;;;18.16;100.00
6030;BME280;3043;42.682;23.376;2023-05-08T04:53:46;95168.19;;;18.92;100.00
6030;BME280;3043;42.682;23.376;2023-05-08T04:56:12;95158.94;;;18.85;100.00
6030;BME280;3043;42.682;23.376;2023-05-08T04:58:37;95157.69;;;18.92;100.00
6030;BME280;3043;42.682;23.376;2023-05-08T05:01:03;95167.72;;;19.64;100.00
6030;BME280;3043;42.682;23.376;2023-05-08T05:03:29;95167.56;;;20.26;100.00
6030;BME280;3043;42.682;23.376;2023-05-08T05:05:59;95159.34;;;20.74;96.86
6030;BME280;3043;42.682;23.376;2023-05-08T05:08:25;95164.59;;;21.30;91.21
6030;BME280;3043;42.682;23.376;2023-05-08T05:10:51;95147.16;;;21.82;88.83
6030;BME280;3043;42.682;23.376;2023-05-08T05:13:16;95154.09;;;22.61;85.10
6030;BME280;3043;42.682;23.376;2023-05-08T05:15:42;95146.91;;;22.89;80.41
6030;BME280;3043;42.682;23.376;2023-05-08T05:18:08;95147.25;;;23.45;75.65
6030;BME280;3043;42.682;23.376;2023-05-08T05:20:33;95154.41;;;23.56;73.42
6030;BME280;3043;42.682;23.376;2023-05-08T05:22:58;95155.84;;;23.60;71.96
6030;BME280;3043;42.682;23.376;2023-05-08T05:25:24;95152.09;;;23.51;72.44
6030;BME280;3043;42.682;23.376;2023-05-08T05:27:49;95155.88;;;24.07;69.12
6030;BME280;3043;42.682;23.376;2023-05-08T05:30:15;95143.34;;;24.32;67.63
6030;BME280;3043;42.682;23.376;2023-05-08T05:32:40;95153.22;;;24.30;68.23
6030;BME280;3043;42.682;23.376;2023-05-08T05:35:06;95154.47;;;24.60;66.05
6030;BME280;3043;42.682;23.376;2023-05-08T05:37:33;95159.41;;;24.53;66.90
6030;BME280;3043;42.682;23.376;2023-05-08T05:39:58;95154.81;;;24.90;65.83
6030;BME280;3043;42.682;23.376;2023-05-08T05:42:24;95150.50;;;25.44;62.49
6030;BME280;3043;42.682;23.376;2023-05-08T05:44:49;95148.91;;;25.08;61.37
6030;BME280;3043;42.682;23.376;2023-05-08T05:47:15;95145.66;;;24.94;63.99
6030;BME280;3043;42.682;23.376;2023-05-08T05:49:40;95148.16;;;26.15;58.99
6030;BME280;3043;42.682;23.376;2023-05-08T05:52:11;95146.00;;;25.98;58.49
6030;BME280;3043;42.682;23.376;2023-05-08T05:54:36;95149.50;;;26.09;58.24
6030;BME280;3043;42.682;23.376;2023-05-08T05:57:02;95141.09;;;26.98;54.23
6030;BME280;3043;42.682;23.376;2023-05-08T05:59:28;95147.28;;;27.28;54.02
6030;BME280;3043;42.682;23.376;2023-05-08T06:01:53;95147.91;;;27.51;51.77
6030;BME280;3043;42.682;23.376;2023-05-08T06:04:19;95146.41;;;27.67;50.15
6030;BME280;3043;42.682;23.376;2023-05-08T06:06:44;95139.34;;;27.87;49.81
6030;BME280;3043;42.682;23.376;2023-05-08T06:09:09;95137.81;;;28.23;49.01
6030;BME280;3043;42.682;23.376;2023-05-08T06:11:35;95139.25;;;28.65;46.65
6030;BME280;3043;42.682;23.376;2023-05-08T06:14:00;95140.63;;;28.78;45.73
6030;BME280;3043;42.682;23.376;2023-05-08T06:16:26;95136.81;;;27.46;49.14
6030;BME280;3043;42.682;23.376;2023-05-08T06:18:51;95134.31;;;26.94;52.19
6030;BME280;3043;42.682;23.376;2023-05-08T06:21:16;95131.72;;;26.73;51.66
6030;BME280;3043;42.682;23.376;2023-05-08T06:23:42;95133.97;;;26.78;52.36
6030;BME280;3043;42.682;23.376;2023-05-08T06:26:07;95128.63;;;26.37;52.78
6030;BME280;3043;42.682;23.376;2023-05-08T06:28:33;95118.03;;;26.78;52.18
6030;BME280;3043;42.682;23.376;2023-05-08T06:30:58;95129.00;;;26.53;52.16
6030;BME280;3043;42.682;23.376;2023-05-08T06:33:24;95127.31;;;25.57;56.87
6030;BME280;3043;42.682;23.376;2023-05-08T06:35:50;95135.06;;;25.16;61.19
6030;BME280;3043;42.682;23.376;2023-05-08T06:38:15;95129.81;;;25.80;57.03
6030;BME280;3043;42.682;23.376;2023-05-08T06:40:44;95132.06;;;25.20;59.07
6030;BME280;3043;42.682;23.376;2023-05-08T06:43:11;95134.34;;;25.25;59.44
6030;BME280;3043;42.682;23.376;2023-05-08T06:45:37;95129.41;;;24.76;62.48
6030;BME280;3043;42.682;23.376;2023-05-08T06:48:03;95129.41;;;25.20;61.60
6030;BME280;3043;42.682;23.376;2023-05-08T06:50:28;95133.66;;;25.34;60.99
6030;BME280;3043;42.682;23.376;2023-05-08T06:52:54;95131.44;;;26.03;60.06
6030;BME280;3043;42.682;23.376;2023-05-08T06:55:19;95135.78;;;25.93;56.19
6030;BME280;3043;42.682;23.376;2023-05-08T06:57:45;95125.41;;;25.59;57.97
6030;BME280;3043;42.682;23.376;2023-05-08T07:00:10;95135.22;;;25.90;57.32
6030;BME280;3043;42.682;23.376;2023-05-08T07:02:36;95129.75;;;26.02;56.39
6030;BME280;3043;42.682;23.376;2023-05-08T07:05:02;95124.44;;;26.34;56.75
6030;BME280;3043;42.682;23.376;2023-05-08T07:07:27;95138.91;;;26.30;57.39
6030;BME280;3043;42.682;23.376;2023-05-08T07:09:53;95130.72;;;26.54;57.45
6030;BME280;3043;42.682;23.376;2023-05-08T07:12:18;95130.97;;;26.51;55.85
6030;BME280;3043;42.682;23.376;2023-05-08T07:14:44;95130.47;;;25.93;55.95
6030;BME280;3043;42.682;23.376;2023-05-08T07:17:09;95134.97;;;25.39;60.21
6030;BME280;3043;42.682;23.376;2023-05-08T07:19:35;95139.53;;;25.26;61.63
6030;BME280;3043;42.682;23.376;2023-05-08T07:22:01;95140.34;;;24.94;60.87
6030;BME280;3043;42.682;23.376;2023-05-08T07:24:26;95133.38;;;25.15;61.04
6030;BME280;3043;42.682;23.376;2023-05-08T07:26:52;95133.97;;;24.74;61.62
6030;BME280;3043;42.682;23.376;2023-05-08T07:29:17;95132.53;;;24.35;63.22
6030;BME280;3043;42.682;23.376;2023-05-08T07:31:44;95135.19;;;24.92;61.04
6030;BME280;3043;42.682;23.376;2023-05-08T07:34:11;95129.41;;;24.41;65.27
6030;BME280;3043;42.682;23.376;2023-05-08T07:36:36;95140.16;;;24.51;66.06
6030;BME280;3043;42.682;23.376;2023-05-08T07:39:02;95129.88;;;24.70;66.22
6030;BME280;3043;42.682;23.376;2023-05-08T07:41:28;95138.00;;;24.56;63.65
6030;BME280;3043;42.682;23.376;2023-05-08T07:43:53;95130.41;;;24.06;66.72
6030;BME280;3043;42.682;23.376;2023-05-08T07:46:19;95142.72;;;23.71;68.42
6030;BME280;3043;42.682;23.376;2023-05-08T07:48:44;95133.56;;;24.22;67.70
6030;BME280;3043;42.682;23.376;2023-05-08T07:51:10;95131.00;;;24.55;66.76
6030;BME280;3043;42.682;23.376;2023-05-08T07:53:36;95136.00;;;24.71;67.68
6030;BME280;3043;42.682;23.376;2023-05-08T07:56:01;95136.63;;;25.29;68.18
6030;BME280;3043;42.682;23.376;2023-05-08T07:58:27;95134.97;;;26.25;61.33
6030;BME280;3043;42.682;23.376;2023-05-08T08:00:52;95139.03;;;27.41;54.33
6030;BME280;3043;42.682;23.376;2023-05-08T08:03:18;95146.38;;;27.58;54.43
6030;BME280;3043;42.682;23.376;2023-05-08T08:05:43;95141.97;;;29.01;48.23
6030;BME280;3043;42.682;23.376;2023-05-08T08:08:09;95148.56;;;29.16;47.54
6030;BME280;3043;42.682;23.376;2023-05-08T08:10:34;95138.03;;;29.52;45.29
6030;BME280;3043;42.682;23.376;2023-05-08T08:13:00;95140.09;;;29.58;42.58
6030;BME280;3043;42.682;23.376;2023-05-08T08:15:28;95145.44;;;28.46;46.03
6030;BME280;3043;42.682;23.376;2023-05-08T08:17:54;95142.63;;;28.57;46.16
6030;BME280;3043;42.682;23.376;2023-05-08T08:20:19;95144.47;;;29.12;45.09
6030;BME280;3043;42.682;23.376;2023-05-08T08:22:45;95141.88;;;30.11;43.41
6030;BME280;3043;42.682;23.376;2023-05-08T08:25:11;95139.91;;;29.96;43.98
6030;BME280;3043;42.682;23.376;2023-05-08T08:27:36;95146.91;;;29.97;42.68
6030;BME280;3043;42.682;23.376;2023-05-08T08:30:02;95130.53;;;30.09;43.03
6030;BME280;3043;42.682;23.376;2023-05-08T08:32:27;95134.84;;;30.20;43.40
6030;BME280;3043;42.682;23.376;2023-05-08T08:34:53;95128.94;;;29.99;43.68
6030;BME280;3043;42.682;23.376;2023-05-08T08:37:18;95126.22;;;30.26;44.73
6030;BME280;3043;42.682;23.376;2023-05-08T08:39:44;95123.03;;;30.40;43.71
6030;BME280;3043;42.682;23.376;2023-05-08T08:42:09;95126.75;;;29.85;44.59
6030;BME280;3043;42.682;23.376;2023-05-08T08:44:36;95123.72;;;29.06;46.43
6030;BME280;3043;42.682;23.376;2023-05-08T08:47:04;95121.81;;;28.89;48.08
6030;BME280;3043;42.682;23.376;2023-05-08T08:49:47;95123.94;;;28.67;48.79
6030;BME280;3043;42.682;23.376;2023-05-08T08:52:51;95109.41;;;28.04;49.50
6030;BME280;3043;42.682;23.376;2023-05-08T08:55:19;95108.81;;;27.12;52.79
6030;BME280;3043;42.682;23.376;2023-05-08T09:00:50;95095.97;;;26.04;59.91
6030;BME280;3043;42.682;23.376;2023-05-08T09:03:15;95087.56;;;25.99;62.23
6030;BME280;3043;42.682;23.376;2023-05-08T09:05:42;95087.75;;;26.07;64.06
6030;BME280;3043;42.682;23.376;2023-05-08T09:08:08;95088.75;;;26.06;62.80
6030;BME280;3043;42.682;23.376;2023-05-08T09:10:34;95082.81;;;25.40;62.83
6030;BME280;3043;42.682;23.376;2023-05-08T09:13:01;95082.63;;;25.52;63.10
6030;BME280;3043;42.682;23.376;2023-05-08T09:15:27;95078.34;;;25.18;68.33
6030;BME280;3043;42.682;23.376;2023-05-08T09:17:53;95076.06;;;24.92;71.73
6030;BME280;3043;42.682;23.376;2023-05-08T09:20:18;95068.72;;;24.62;73.68
6030;BME280;3043;42.682;23.376;2023-05-08T09:22:44;95064.78;;;24.90;70.15
6030;BME280;3043;42.682;23.376;2023-05-08T09:25:10;95066.59;;;24.10;74.90
6030;BME280;3043;42.682;23.376;2023-05-08T09:27:35;95049.22;;;23.72;78.08
6030;BME280;3043;42.682;23.376;2023-05-08T09:30:04;95050.31;;;23.46;81.42
6030;BME280;3043;42.682;23.376;2023-05-08T09:32:32;95043.75;;;23.28;82.84
6030;BME280;3043;42.682;23.376;2023-05-08T09:34:59;95053.19;;;23.43;84.33
6030;BME280;3043;42.682;23.376;2023-05-08T09:37:25;95060.59;;;23.02;87.21
6030;BME280;3043;42.682;23.376;2023-05-08T09:39:52;95056.53;;;22.47;92.64
6030;BME280;3043;42.682;23.376;2023-05-08T09:42:18;95054.03;;;22.08;98.87
6030;BME280;3043;42.682;23.376;2023-05-08T09:49:36;95066.78;;;22.39;100.00
6030;BME280;3043;42.682;23.376;2023-05-08T09:52:03;95073.44;;;22.57;100.00
6030;BME280;3043;42.682;23.376;2023-05-08T09:54:29;95059.28;;;22.46;100.00
6030;BME280;3043;42.682;23.376;2023-05-08T09:56:54;95070.69;;;22.46;98.71
6030;BME280;3043;42.682;23.376;2023-05-08T09:59:26;95065.63;;;22.68;100.00
6030;BME280;3043;42.682;23.376;2023-05-08T10:01:53;95063.97;;;23.04;97.67
6030;BME280;3043;42.682;23.376;2023-05-08T10:04:32;95062.97;;;23.30;97.44
6030;BME280;3043;42.682;23.376;2023-05-08T10:06:58;95053.34;;;23.76;93.35
6030;BME280;3043;42.682;23.376;2023-05-08T10:09:23;95055.38;;;24.07;89.28
6030;BME280;3043;42.682;23.376;2023-05-08T10:11:50;95060.97;;;24.26;87.57
6030;BME280;3043;42.682;23.376;2023-05-08T10:14:18;95054.25;;;24.55;86.45
6030;BME280;3043;42.682;23.376;2023-05-08T10:16:45;95050.72;;;24.67;87.60
6030;BME280;3043;42.682;23.376;2023-05-08T10:19:13;95051.59;;;25.21;84.61
6030;BME280;3043;42.682;23.376;2023-05-08T10:21:41;95048.16;;;25.52;80.68
6030;BME280;3043;42.682;23.376;2023-05-08T10:24:13;95049.34;;;25.70;79.42
6030;BME280;3043;42.682;23.376;2023-05-08T10:26:42;95047.50;;;25.28;78.03
6030;BME280;3043;42.682;23.376;2023-05-08T10:29:15;95043.19;;;25.16;81.29
6030;BME280;3043;42.682;23.376;2023-05-08T10:31:43;95025.47;;;25.28;81.09
6030;BME280;3043;42.682;23.376;2023-05-08T10:34:15;95032.22;;;25.63;79.37
6030;BME280;3043;42.682;23.376;2023-05-08T10:36:43;95032.19;;;25.74;78.93
6030;BME280;3043;42.682;23.376;2023-05-08T10:39:10;95040.00;;;26.07;76.85
6030;BME280;3043;42.682;23.376;2023-05-08T10:41:36;95038.78;;;26.11;76.89
6030;BME280;3043;42.682;23.376;2023-05-08T10:44:02;95028.84;;;26.55;73.27
6030;BME280;3043;42.682;23.376;2023-05-08T10:46:36;95034.97;;;26.76;72.12
6030;BME280;3043;42.682;23.376;2023-05-08T10:55:12;95026.28;;;26.64;69.62
6030;BME280;3043;42.682;23.376;2023-05-08T10:57:41;95016.53;;;26.24;73.04
6030;BME280;3043;42.682;23.376;2023-05-08T11:00:07;95017.81;;;26.08;77.30
6030;BME280;3043;42.682;23.376;2023-05-08T11:02:32;95021.41;;;26.49;71.04
6030;BME280;3043;42.682;23.376;2023-05-08T11:05:21;95018.94;;;26.27;66.19
6030;BME280;3043;42.682;23.376;2023-05-08T11:07:55;95015.41;;;26.05;68.33
6030;BME280;3043;42.682;23.376;2023-05-08T11:10:21;95012.91;;;26.25;66.68
6030;BME280;3043;42.682;23.376;2023-05-08T11:12:53;95004.53;;;25.88;64.01
6030;BME280;3043;42.682;23.376;2023-05-08T11:15:34;95006.88;;;26.23;65.97
6030;BME280;3043;42.682;23.376;2023-05-08T11:18:07;94996.19;;;25.92;68.75
6030;BME280;3043;42.682;23.376;2023-05-08T11:21:00;94993.25;;;26.06;70.15
6030;BME280;3043;42.682;23.376;2023-05-08T11:23:31;94984.34;;;26.68;65.56
6030;BME280;3043;42.682;23.376;2023-05-08T11:26:02;94985.44;;;27.05;66.15
6030;BME280;3043;42.682;23.376;2023-05-08T11:28:32;94976.63;;;26.95;60.93
6030;BME280;3043;42.682;23.376;2023-05-08T11:31:06;94973.53;;;26.30;64.20
6030;BME280;3043;42.682;23.376;2023-05-08T11:33:33;94969.66;;;25.92;64.33
6030;BME280;3043;42.682;23.376;2023-05-08T11:36:14;94965.69;;;25.66;70.76
6030;BME280;3043;42.682;23.376;2023-05-08T11:38:41;94963.19;;;25.85;72.68
6030;BME280;3043;42.682;23.376;2023-05-08T11:46:07;94944.16;;;26.52;63.93
6030;BME280;3043;42.682;23.376;2023-05-08T11:48:37;94947.13;;;26.58;61.57
6030;BME280;3043;42.682;23.376;2023-05-08T11:51:03;94939.19;;;26.68;62.85
6030;BME280;3043;42.682;23.376;2023-05-08T11:53:29;94932.00;;;26.59;62.93
6030;BME280;3043;42.682;23.376;2023-05-08T11:55:55;94930.94;;;26.31;63.51
6030;BME280;3043;42.682;23.376;2023-05-08T11:58:21;94925.25;;;26.45;63.26
6030;BME280;3043;42.682;23.376;2023-05-08T12:00:47;94926.31;;;26.33;62.10
6030;BME280;3043;42.682;23.376;2023-05-08T12:03:17;94915.66;;;26.54;62.14
6030;BME280;3043;42.682;23.376;2023-05-08T12:05:43;94913.00;;;26.54;62.42
6030;BME280;3043;42.682;23.376;2023-05-08T12:08:10;94907.28;;;26.19;61.95
6030;BME280;3043;42.682;23.376;2023-05-08T12:15:50;94907.13;;;25.90;66.03
6030;BME280;3043;42.682;23.376;2023-05-08T12:18:17;94903.38;;;26.23;65.25
6030;BME280;3043;42.682;23.376;2023-05-08T12:20:43;94899.25;;;26.30;64.70
6030;BME280;3043;42.682;23.376;2023-05-08T12:23:09;94908.34;;;26.06;65.12
6030;BME280;3043;42.682;23.376;2023-05-08T12:25:38;94907.63;;;26.04;66.00
6030;BME280;3043;42.682;23.376;2023-05-08T12:28:08;94902.25;;;26.16;66.54
6030;BME280;3043;42.682;23.376;2023-05-08T12:30:34;94897.47;;;26.09;69.91
6030;BME280;3043;42.682;23.376;2023-05-08T12:33:01;94892.75;;;26.23;64.80
6030;BME280;3043;42.682;23.376;2023-05-08T12:35:27;94891.94;;;26.22;65.73
6030;BME280;3043;42.682;23.376;2023-05-08T12:37:52;94888.63;;;26.39;63.90
6030;BME280;3043;42.682;23.376;2023-05-08T12:42:49;94880.25;;;26.44;61.68
6030;BME280;3043;42.682;23.376;2023-05-08T12:45:16;94888.00;;;26.17;62.46
6030;BME280;3043;42.682;23.376;2023-05-08T12:47:46;94889.06;;;26.04;62.54
6030;BME280;3043;42.682;23.376;2023-05-08T12:50:16;94882.13;;;25.92;63.38
6030;BME280;3043;42.682;23.376;2023-05-08T12:52:43;94883.91;;;25.82;65.27
6030;BME280;3043;42.682;23.376;2023-05-08T12:55:28;94880.31;;;25.93;65.50
6030;BME280;3043;42.682;23.376;2023-05-08T13:00:48;94881.25;;;25.41;65.68
6030;BME280;3043;42.682;23.376;2023-05-08T13:05:47;94874.06;;;25.01;68.94
6030;BME280;3043;42.682;23.376;2023-05-08T13:08:12;94882.59;;;24.73;83.35
6030;BME280;3043;42.682;23.376;2023-05-08T13:10:48;94885.81;;;23.44;100.00
6030;BME280;3043;42.682;23.376;2023-05-08T13:13:15;94880.34;;;22.52;100.00
6030;BME280;3043;42.682;23.376;2023-05-08T13:15:42;94888.47;;;22.13;100.00
6030;BME280;3043;42.682;23.376;2023-05-08T13:18:07;94902.47;;;21.39;100.00
6030;BME280;3043;42.682;23.376;2023-05-08T13:20:36;94907.94;;;21.23;100.00
6030;BME280;3043;42.682;23.376;2023-05-08T13:23:02;94887.59;;;21.13;100.00
6030;BME280;3043;42.682;23.376;2023-05-08T13:25:28;94903.09;;;21.17;100.00
6030;BME280;3043;42.682;23.376;2023-05-08T13:27:54;94905.25;;;21.10;100.00
6030;BME280;3043;42.682;23.376;2023-05-08T13:30:20;94916.44;;;21.14;100.00
6030;BME280;3043;42.682;23.376;2023-05-08T13:32:47;94919.00;;;21.28;100.00
6030;BME280;3043;42.682;23.376;2023-05-08T13:35:13;94919.19;;;21.13;100.00
6030;BME280;3043;42.682;23.376;2023-05-08T13:37:38;94920.63;;;21.04;100.00
6030;BME280;3043;42.682;23.376;2023-05-08T13:40:04;94922.16;;;21.21;100.00
6030;BME280;3043;42.682;23.376;2023-05-08T13:42:30;94919.63;;;21.19;100.00
6030;BME280;3043;42.682;23.376;2023-05-08T13:44:55;94932.72;;;20.80;100.00
6030;BME280;3043;42.682;23.376;2023-05-08T13:47:21;94937.56;;;20.73;100.00
6030;BME280;3043;42.682;23.376;2023-05-08T13:49:46;94945.53;;;20.72;100.00
6030;BME280;3043;42.682;23.376;2023-05-08T13:52:13;94931.75;;;20.68;100.00
6030;BME280;3043;42.682;23.376;2023-05-08T13:54:38;94949.38;;;20.40;100.00
6030;BME280;3043;42.682;23.376;2023-05-08T13:57:04;94943.91;;;20.57;100.00
6030;BME280;3043;42.682;23.376;2023-05-08T13:59:30;94964.22;;;20.27;100.00
6030;BME280;3043;42.682;23.376;2023-05-08T14:01:56;94950.31;;;19.97;100.00
6030;BME280;3043;42.682;23.376;2023-05-08T14:04:22;94967.22;;;19.79;100.00